sensor_id;sensor_type;location;lat;lon;timestamp;pressure;altitude;pressure_sealevel;temperature;humidity
71299;BME280;59083;47.974;21.722;2023-02-28T00:00:27;101509.47;;;-0.47;76.18
71299;BME280;59083;47.974;21.722;2023-02-28T00:03:29;101516.38;;;-0.46;76.26
71299;BME280;59083;47.974;21.722;2023-02-28T00:06:30;101514.78;;;-0.48;76.53
71299;BME280;59083;47.974;21.722;2023-02-28T00:09:31;101507.34;;;-0.56;76.66
71299;BME280;59083;47.974;21.722;2023-02-28T00:12:34;101518.53;;;-0.52;76.64
71299;BME280;59083;47.974;21.722;2023-02-28T00:15:35;101521.37;;;-0.57;76.63
71299;BME280;59083;47.974;21.722;2023-02-28T00:18:37;101530.56;;;-0.50;76.33
71299;BME280;59083;47.974;21.722;2023-02-28T00:21:38;101528.53;;;-0.45;76.16
71299;BME280;59083;47.974;21.722;2023-02-28T00:24:41;101523.22;;;-0.43;76.20
71299;BME280;59083;47.974;21.722;2023-02-28T00:27:43;101535.50;;;-0.29;76.14
71299;BME280;59083;47.974;21.722;2023-02-28T00:30:44;101537.66;;;-0.22;75.69
71299;BME280;59083;47.974;21.722;2023-02-28T00:33:45;101538.97;;;-0.29;75.60
71299;BME280;59083;47.974;21.722;2023-02-28T00:36:49;101540.75;;;-0.29;75.48
71299;BME280;59083;47.974;21.722;2023-02-28T00:39:50;101552.72;;;-0.25;75.34
71299;BME280;59083;47.974;21.722;2023-02-28T00:42:51;101554.06;;;-0.18;75.28
71299;BME280;59083;47.974;21.722;2023-02-28T00:45:52;101555.34;;;-0.11;74.71
71299;BME280;59083;47.974;21.722;2023-02-28T00:48:54;101550.41;;;-0.16;74.74
71299;BME280;59083;47.974;21.722;2023-02-28T00:51:55;101550.69;;;-0.20;74.86
71299;BME280;59083;47.974;21.722;2023-02-28T00:54:57;101554.12;;;-0.20;74.69
71299;BME280;59083;47.974;21.722;2023-02-28T00:57:58;101548.63;;;-0.15;74.71
71299;BME280;59083;47.974;21.722;2023-02-28T01:01:00;101551.59;;;-0.21;74.69
71299;BME280;59083;47.974;21.722;2023-02-28T01:04:01;101544.78;;;-0.24;75.09
71299;BME280;59083;47.974;21.722;2023-02-28T01:07:02;101534.78;;;-0.17;75.27
71299;BME280;59083;47.974;21.722;2023-02-28T01:10:04;101533.94;;;-0.18;75.07
71299;BME280;59083;47.974;21.722;2023-02-28T01:13:05;101545.50;;;0.08;74.23
71299;BME280;59083;47.974;21.722;2023-02-28T01:16:07;101542.78;;;0.10;74.32
71299;BME280;59083;47.974;21.722;2023-02-28T01:19:09;101548.66;;;0.13;74.31
71299;BME280;59083;47.974;21.722;2023-02-28T01:22:12;101554.31;;;0.21;73.72
71299;BME280;59083;47.974;21.722;2023-02-28T01:25:14;101547.94;;;0.25;73.56
71299;BME280;59083;47.974;21.722;2023-02-28T01:28:15;101560.47;;;0.20;73.41
71299;BME280;59083;47.974;21.722;2023-02-28T01:31:17;101557.94;;;0.19;73.21
71299;BME280;59083;47.974;21.722;2023-02-28T01:34:19;101558.06;;;0.31;73.13
71299;BME280;59083;47.974;21.722;2023-02-28T01:37:20;101558.06;;;0.31;73.31
71299;BME280;59083;47.974;21.722;2023-02-28T01:40:22;101559.91;;;0.29;73.11
71299;BME280;59083;47.974;21.722;2023-02-28T01:43:29;101562.16;;;0.35;73.17
71299;BME280;59083;47.974;21.722;2023-02-28T01:46:33;101567.81;;;0.44;72.75
71299;BME280;59083;47.974;21.722;2023-02-28T01:49:35;101560.69;;;0.46;72.81
71299;BME280;59083;47.974;21.722;2023-02-28T01:52:36;101562.72;;;0.40;73.33
71299;BME280;59083;47.974;21.722;2023-02-28T01:55:39;101557.12;;;0.47;73.20
71299;BME280;59083;47.974;21.722;2023-02-28T01:58:42;101560.28;;;0.52;73.01
71299;BME280;59083;47.974;21.722;2023-02-28T02:01:43;101572.31;;;0.56;72.97
71299;BME280;59083;47.974;21.722;2023-02-28T02:04:56;101565.37;;;0.55;73.13
71299;BME280;59083;47.974;21.722;2023-02-28T02:08:05;101568.16;;;0.52;72.86
71299;BME280;59083;47.974;21.722;2023-02-28T02:11:09;101567.53;;;0.62;72.78
71299;BME280;59083;47.974;21.722;2023-02-28T02:14:37;101566.59;;;0.49;73.20
71299;BME280;59083;47.974;21.722;2023-02-28T02:17:48;101574.00;;;0.57;72.79
71299;BME280;59083;47.974;21.722;2023-02-28T02:24:34;101573.16;;;0.56;73.02
71299;BME280;59083;47.974;21.722;2023-02-28T02:38:09;101587.34;;;0.52;73.09
71299;BME280;59083;47.974;21.722;2023-02-28T02:44:47;101585.03;;;0.48;73.28
71299;BME280;59083;47.974;21.722;2023-02-28T02:47:51;101591.03;;;0.50;73.32
71299;BME280;59083;47.974;21.722;2023-02-28T02:50:55;101590.94;;;0.51;73.22
71299;BME280;59083;47.974;21.722;2023-02-28T02:54:17;101589.72;;;0.57;72.96
71299;BME280;59083;47.974;21.722;2023-02-28T02:57:29;101593.28;;;0.56;73.31
71299;BME280;59083;47.974;21.722;2023-02-28T03:00:37;101588.19;;;0.53;73.47
71299;BME280;59083;47.974;21.722;2023-02-28T03:03:41;101595.13;;;0.54;73.47
71299;BME280;59083;47.974;21.722;2023-02-28T03:06:42;101585.78;;;0.64;72.79
71299;BME280;59083;47.974;21.722;2023-02-28T03:09:51;101588.50;;;0.62;73.06
71299;BME280;59083;47.974;21.722;2023-02-28T03:13:03;101578.66;;;0.52;73.25
71299;BME280;59083;47.974;21.722;2023-02-28T03:26:00;101569.31;;;0.33;74.15
71299;BME280;59083;47.974;21.722;2023-02-28T03:32:38;101574.03;;;0.13;75.08
71299;BME280;59083;47.974;21.722;2023-02-28T03:35:51;101572.47;;;0.24;74.59
71299;BME280;59083;47.974;21.722;2023-02-28T03:39:09;101573.78;;;0.31;74.32
71299;BME280;59083;47.974;21.722;2023-02-28T03:42:23;101575.00;;;0.26;74.27
71299;BME280;59083;47.974;21.722;2023-02-28T03:45:29;101584.00;;;0.22;74.88
71299;BME280;59083;47.974;21.722;2023-02-28T03:48:42;101589.31;;;0.20;75.15
71299;BME280;59083;47.974;21.722;2023-02-28T03:51:45;101595.13;;;0.25;74.97
71299;BME280;59083;47.974;21.722;2023-02-28T03:54:53;101594.75;;;0.31;74.54
71299;BME280;59083;47.974;21.722;2023-02-28T04:01:31;101583.06;;;0.23;74.94
71299;BME280;59083;47.974;21.722;2023-02-28T04:04:36;101580.88;;;0.29;74.86
71299;BME280;59083;47.974;21.722;2023-02-28T04:07:37;101574.88;;;0.13;75.49
71299;BME280;59083;47.974;21.722;2023-02-28T04:10:38;101578.44;;;0.12;75.34
71299;BME280;59083;47.974;21.722;2023-02-28T04:13:40;101572.06;;;0.02;75.76
71299;BME280;59083;47.974;21.722;2023-02-28T04:16:41;101555.34;;;-0.25;76.46
71299;BME280;59083;47.974;21.722;2023-02-28T04:19:42;101580.25;;;-0.18;76.59
71299;BME280;59083;47.974;21.722;2023-02-28T04:22:44;101574.59;;;-0.26;76.81
71299;BME280;59083;47.974;21.722;2023-02-28T04:25:45;101581.22;;;-0.35;77.14
71299;BME280;59083;47.974;21.722;2023-02-28T04:28:46;101580.38;;;-0.35;77.59
71299;BME280;59083;47.974;21.722;2023-02-28T04:31:47;101579.53;;;-0.36;77.52
71299;BME280;59083;47.974;21.722;2023-02-28T04:34:48;101581.66;;;-0.43;77.89
71299;BME280;59083;47.974;21.722;2023-02-28T04:37:49;101579.19;;;-0.46;78.12
71299;BME280;59083;47.974;21.722;2023-02-28T04:40:51;101586.88;;;-0.43;78.22
71299;BME280;59083;47.974;21.722;2023-02-28T04:43:52;101579.81;;;-0.40;77.98
71299;BME280;59083;47.974;21.722;2023-02-28T04:46:53;101578.75;;;-0.38;77.68
71299;BME280;59083;47.974;21.722;2023-02-28T04:49:55;101587.13;;;-0.31;77.66
71299;BME280;59083;47.974;21.722;2023-02-28T04:52:56;101595.19;;;-0.20;77.09
71299;BME280;59083;47.974;21.722;2023-02-28T04:55:57;101597.16;;;-0.24;77.63
71299;BME280;59083;47.974;21.722;2023-02-28T04:58:59;101598.47;;;-0.17;77.27
71299;BME280;59083;47.974;21.722;2023-02-28T05:02:00;101599.44;;;-0.18;77.21
71299;BME280;59083;47.974;21.722;2023-02-28T05:05:01;101601.06;;;-0.01;76.58
71299;BME280;59083;47.974;21.722;2023-02-28T05:08:02;101600.66;;;-0.09;76.87
71299;BME280;59083;47.974;21.722;2023-02-28T05:11:17;101610.78;;;-0.03;76.43
71299;BME280;59083;47.974;21.722;2023-02-28T05:14:18;101613.41;;;-0.03;76.67
71299;BME280;59083;47.974;21.722;2023-02-28T05:17:20;101605.72;;;-0.06;76.87
71299;BME280;59083;47.974;21.722;2023-02-28T05:20:21;101616.69;;;0.00;76.55
71299;BME280;59083;47.974;21.722;2023-02-28T05:23:22;101611.75;;;0.10;76.22
71299;BME280;59083;47.974;21.722;2023-02-28T05:26:24;101618.31;;;0.17;75.70
71299;BME280;59083;47.974;21.722;2023-02-28T05:29:26;101620.53;;;0.09;76.09
71299;BME280;59083;47.974;21.722;2023-02-28T05:32:27;101618.22;;;-0.11;77.17
71299;BME280;59083;47.974;21.722;2023-02-28T05:35:28;101619.41;;;-0.01;76.84
71299;BME280;59083;47.974;21.722;2023-02-28T05:38:29;101623.37;;;0.20;76.19
71299;BME280;59083;47.974;21.722;2023-02-28T05:41:31;101635.44;;;0.09;76.57
71299;BME280;59083;47.974;21.722;2023-02-28T05:44:32;101632.38;;;0.16;76.52
71299;BME280;59083;47.974;21.722;2023-02-28T05:47:33;101636.87;;;0.28;75.78
71299;BME280;59083;47.974;21.722;2023-02-28T05:50:35;101633.50;;;0.26;76.19
71299;BME280;59083;47.974;21.722;2023-02-28T05:53:37;101637.91;;;0.26;76.20
71299;BME280;59083;47.974;21.722;2023-02-28T05:56:38;101644.75;;;0.28;76.11
71299;BME280;59083;47.974;21.722;2023-02-28T05:59:41;101640.09;;;0.33;76.01
71299;BME280;59083;47.974;21.722;2023-02-28T06:02:42;101635.09;;;0.29;76.11
71299;BME280;59083;47.974;21.722;2023-02-28T06:05:43;101649.53;;;0.36;75.47
71299;BME280;59083;47.974;21.722;2023-02-28T06:08:44;101650.00;;;0.43;75.75
71299;BME280;59083;47.974;21.722;2023-02-28T06:11:46;101636.34;;;0.37;75.63
71299;BME280;59083;47.974;21.722;2023-02-28T06:14:47;101639.91;;;0.51;75.38
71299;BME280;59083;47.974;21.722;2023-02-28T06:17:49;101632.59;;;0.41;75.21
71299;BME280;59083;47.974;21.722;2023-02-28T06:20:54;101630.47;;;0.62;75.42
71299;BME280;59083;47.974;21.722;2023-02-28T06:23:56;101630.53;;;0.75;74.54
71299;BME280;59083;47.974;21.722;2023-02-28T06:26:58;101632.25;;;0.62;74.94
71299;BME280;59083;47.974;21.722;2023-02-28T06:30:06;101626.44;;;0.57;75.19
71299;BME280;59083;47.974;21.722;2023-02-28T06:33:07;101606.72;;;0.35;75.75
71299;BME280;59083;47.974;21.722;2023-02-28T06:36:10;101628.09;;;0.58;75.41
71299;BME280;59083;47.974;21.722;2023-02-28T06:39:13;101638.97;;;0.52;75.41
71299;BME280;59083;47.974;21.722;2023-02-28T06:42:14;101642.63;;;0.63;75.20
71299;BME280;59083;47.974;21.722;2023-02-28T06:45:15;101628.47;;;0.80;74.97
71299;BME280;59083;47.974;21.722;2023-02-28T06:48:17;101630.16;;;0.81;74.53
71299;BME280;59083;47.974;21.722;2023-02-28T06:51:20;101621.38;;;0.82;74.58
71299;BME280;59083;47.974;21.722;2023-02-28T06:54:23;101605.63;;;0.82;74.17
71299;BME280;59083;47.974;21.722;2023-02-28T06:57:24;101612.19;;;0.89;74.49
71299;BME280;59083;47.974;21.722;2023-02-28T07:00:26;101606.47;;;0.97;74.20
71299;BME280;59083;47.974;21.722;2023-02-28T07:03:27;101606.19;;;0.87;74.41
71299;BME280;59083;47.974;21.722;2023-02-28T07:06:28;101616.84;;;0.98;73.79
71299;BME280;59083;47.974;21.722;2023-02-28T07:09:29;101620.81;;;0.91;74.15
71299;BME280;59083;47.974;21.722;2023-02-28T07:12:31;101616.50;;;0.90;73.94
71299;BME280;59083;47.974;21.722;2023-02-28T07:15:32;101623.78;;;0.99;nan
71299;BME280;59083;47.974;21.722;2023-02-28T07:18:34;101632.22;;;1.04;73.47
71299;BME280;59083;47.974;21.722;2023-02-28T07:21:35;101636.09;;;0.85;73.95
71299;BME280;59083;47.974;21.722;2023-02-28T07:24:36;101638.31;;;1.05;73.66
71299;BME280;59083;47.974;21.722;2023-02-28T07:27:37;101655.62;;;1.21;72.97
71299;BME280;59083;47.974;21.722;2023-02-28T07:30:39;101640.97;;;1.32;72.61
71299;BME280;59083;47.974;21.722;2023-02-28T07:33:40;101639.75;;;1.37;72.48
71299;BME280;59083;47.974;21.722;2023-02-28T07:36:42;101640.13;;;1.31;72.27
71299;BME280;59083;47.974;21.722;2023-02-28T07:39:43;101649.31;;;1.38;72.14
71299;BME280;59083;47.974;21.722;2023-02-28T07:42:44;101650.06;;;1.40;72.06
71299;BME280;59083;47.974;21.722;2023-02-28T07:45:47;101652.22;;;1.48;71.75
71299;BME280;59083;47.974;21.722;2023-02-28T07:48:48;101655.41;;;1.39;71.60
71299;BME280;59083;47.974;21.722;2023-02-28T07:51:49;101660.44;;;1.56;71.48
71299;BME280;59083;47.974;21.722;2023-02-28T07:54:51;101660.16;;;1.87;70.64
71299;BME280;59083;47.974;21.722;2023-02-28T07:57:52;101657.00;;;1.82;70.78
71299;BME280;59083;47.974;21.722;2023-02-28T08:00:54;101659.44;;;1.71;70.76
71299;BME280;59083;47.974;21.722;2023-02-28T08:03:56;101660.28;;;1.72;70.58
71299;BME280;59083;47.974;21.722;2023-02-28T08:06:57;101659.94;;;1.90;69.86
71299;BME280;59083;47.974;21.722;2023-02-28T08:10:00;101666.94;;;2.04;69.49
71299;BME280;59083;47.974;21.722;2023-02-28T08:13:01;101660.53;;;2.08;69.73
71299;BME280;59083;47.974;21.722;2023-02-28T08:16:02;101657.53;;;1.87;70.25
71299;BME280;59083;47.974;21.722;2023-02-28T08:19:03;101659.22;;;2.28;69.37
71299;BME280;59083;47.974;21.722;2023-02-28T08:22:05;101667.63;;;2.33;69.44
71299;BME280;59083;47.974;21.722;2023-02-28T08:25:06;101653.06;;;2.15;69.16
71299;BME280;59083;47.974;21.722;2023-02-28T08:28:08;101665.06;;;2.19;69.37
71299;BME280;59083;47.974;21.722;2023-02-28T08:31:10;101659.94;;;2.30;69.41
71299;BME280;59083;47.974;21.722;2023-02-28T08:34:14;101668.47;;;2.46;68.90
71299;BME280;59083;47.974;21.722;2023-02-28T08:37:16;101661.00;;;2.53;68.06
71299;BME280;59083;47.974;21.722;2023-02-28T08:40:17;101660.59;;;2.71;68.12
71299;BME280;59083;47.974;21.722;2023-02-28T08:43:19;101648.50;;;2.56;68.14
71299;BME280;59083;47.974;21.722;2023-02-28T08:46:20;101669.78;;;2.78;67.54
71299;BME280;59083;47.974;21.722;2023-02-28T08:49:21;101660.28;;;2.63;67.52
71299;BME280;59083;47.974;21.722;2023-02-28T08:52:23;101659.44;;;2.75;67.38
71299;BME280;59083;47.974;21.722;2023-02-28T08:55:24;101660.66;;;3.08;66.71
71299;BME280;59083;47.974;21.722;2023-02-28T08:58:26;101661.72;;;3.18;66.10
71299;BME280;59083;47.974;21.722;2023-02-28T09:01:28;101665.22;;;3.06;66.25
71299;BME280;59083;47.974;21.722;2023-02-28T09:04:30;101657.03;;;3.34;65.92
71299;BME280;59083;47.974;21.722;2023-02-28T09:07:33;101655.72;;;3.52;65.47
71299;BME280;59083;47.974;21.722;2023-02-28T09:10:35;101656.75;;;3.62;64.82
71299;BME280;59083;47.974;21.722;2023-02-28T09:13:37;101668.09;;;3.39;65.70
71299;BME280;59083;47.974;21.722;2023-02-28T09:16:38;101655.69;;;3.28;65.67
71299;BME280;59083;47.974;21.722;2023-02-28T09:19:40;101668.22;;;3.25;65.83
71299;BME280;59083;47.974;21.722;2023-02-28T09:22:41;101659.81;;;3.56;65.27
71299;BME280;59083;47.974;21.722;2023-02-28T09:25:48;101666.91;;;3.43;65.25
71299;BME280;59083;47.974;21.722;2023-02-28T09:28:50;101669.69;;;3.29;65.32
71299;BME280;59083;47.974;21.722;2023-02-28T09:31:51;101669.50;;;3.19;66.23
71299;BME280;59083;47.974;21.722;2023-02-28T09:34:53;101670.13;;;3.36;65.82
71299;BME280;59083;47.974;21.722;2023-02-28T09:37:54;101663.50;;;3.54;65.36
71299;BME280;59083;47.974;21.722;2023-02-28T09:40:58;101666.38;;;3.51;65.43
71299;BME280;59083;47.974;21.722;2023-02-28T09:44:01;101663.13;;;3.47;65.65
71299;BME280;59083;47.974;21.722;2023-02-28T09:50:38;101660.37;;;3.96;64.55
71299;BME280;59083;47.974;21.722;2023-02-28T09:53:41;101668.13;;;3.87;64.49
71299;BME280;59083;47.974;21.722;2023-02-28T09:56:43;101667.50;;;4.07;63.73
71299;BME280;59083;47.974;21.722;2023-02-28T10:03:25;101668.28;;;4.20;63.45
71299;BME280;59083;47.974;21.722;2023-02-28T10:06:30;101665.69;;;4.42;62.75
71299;BME280;59083;47.974;21.722;2023-02-28T10:09:35;101665.28;;;4.25;63.04
71299;BME280;59083;47.974;21.722;2023-02-28T10:12:40;101664.72;;;4.32;63.39
71299;BME280;59083;47.974;21.722;2023-02-28T10:15:46;101670.03;;;4.08;63.67
71299;BME280;59083;47.974;21.722;2023-02-28T10:19:06;101665.88;;;4.28;62.99
71299;BME280;59083;47.974;21.722;2023-02-28T10:22:17;101654.81;;;4.69;61.84
71299;BME280;59083;47.974;21.722;2023-02-28T10:25:24;101663.25;;;4.96;61.75
71299;BME280;59083;47.974;21.722;2023-02-28T10:28:26;101667.41;;;4.54;62.42
71299;BME280;59083;47.974;21.722;2023-02-28T10:31:30;101666.25;;;4.81;61.96
71299;BME280;59083;47.974;21.722;2023-02-28T10:34:31;101666.50;;;4.78;62.15
71299;BME280;59083;47.974;21.722;2023-02-28T10:37:32;101665.50;;;4.79;61.97
71299;BME280;59083;47.974;21.722;2023-02-28T10:40:38;101651.50;;;4.89;61.31
71299;BME280;59083;47.974;21.722;2023-02-28T10:43:41;101646.53;;;4.96;61.34
71299;BME280;59083;47.974;21.722;2023-02-28T10:46:43;101645.59;;;5.08;60.98
71299;BME280;59083;47.974;21.722;2023-02-28T10:49:49;101632.81;;;5.35;60.31
71299;BME280;59083;47.974;21.722;2023-02-28T10:52:53;101633.81;;;5.23;60.07
71299;BME280;59083;47.974;21.722;2023-02-28T10:56:02;101627.53;;;5.35;59.64
71299;BME280;59083;47.974;21.722;2023-02-28T10:59:25;101637.22;;;6.00;58.21
71299;BME280;59083;47.974;21.722;2023-02-28T11:02:36;101637.50;;;5.97;57.55
71299;BME280;59083;47.974;21.722;2023-02-28T11:05:39;101626.81;;;5.45;58.58
71299;BME280;59083;47.974;21.722;2023-02-28T11:08:57;101631.38;;;5.43;59.09
71299;BME280;59083;47.974;21.722;2023-02-28T11:11:59;101621.62;;;5.54;59.13
71299;BME280;59083;47.974;21.722;2023-02-28T11:15:04;101606.06;;;5.29;59.49
71299;BME280;59083;47.974;21.722;2023-02-28T11:21:21;101612.06;;;5.74;58.32
71299;BME280;59083;47.974;21.722;2023-02-28T11:24:30;101610.31;;;5.95;57.92
71299;BME280;59083;47.974;21.722;2023-02-28T11:30:39;101607.28;;;6.00;57.48
71299;BME280;59083;47.974;21.722;2023-02-28T11:33:44;101598.22;;;6.13;57.70
71299;BME280;59083;47.974;21.722;2023-02-28T11:36:45;101602.00;;;6.41;57.36
71299;BME280;59083;47.974;21.722;2023-02-28T11:39:47;101603.16;;;6.28;57.25
71299;BME280;59083;47.974;21.722;2023-02-28T11:43:09;101588.31;;;5.95;58.17
71299;BME280;59083;47.974;21.722;2023-02-28T11:49:47;101586.97;;;6.42;57.50
71299;BME280;59083;47.974;21.722;2023-02-28T11:52:53;101581.38;;;6.45;56.80
71299;BME280;59083;47.974;21.722;2023-02-28T11:56:05;101593.50;;;6.68;56.31
71299;BME280;59083;47.974;21.722;2023-02-28T12:02:29;101585.69;;;6.67;56.85
71299;BME280;59083;47.974;21.722;2023-02-28T12:05:45;101588.97;;;6.29;57.16
71299;BME280;59083;47.974;21.722;2023-02-28T12:12:41;101587.22;;;6.39;57.52
71299;BME280;59083;47.974;21.722;2023-02-28T12:16:07;101585.59;;;6.47;57.20
71299;BME280;59083;47.974;21.722;2023-02-28T12:19:28;101582.34;;;6.64;57.19
71299;BME280;59083;47.974;21.722;2023-02-28T12:29:24;101569.75;;;6.57;58.01
71299;BME280;59083;47.974;21.722;2023-02-28T12:35:46;101573.44;;;6.45;57.94
71299;BME280;59083;47.974;21.722;2023-02-28T12:38:53;101571.88;;;6.63;57.47
71299;BME280;59083;47.974;21.722;2023-02-28T12:42:28;101564.84;;;6.83;57.29
71299;BME280;59083;47.974;21.722;2023-02-28T12:48:52;101564.12;;;6.81;57.56
71299;BME280;59083;47.974;21.722;2023-02-28T12:51:57;101562.78;;;6.56;57.71
71299;BME280;59083;47.974;21.722;2023-02-28T12:55:07;101559.16;;;6.57;58.14
71299;BME280;59083;47.974;21.722;2023-02-28T13:11:32;101552.53;;;6.72;57.47
71299;BME280;59083;47.974;21.722;2023-02-28T13:17:35;101559.66;;;6.72;57.56
71299;BME280;59083;47.974;21.722;2023-02-28T13:20:47;101553.34;;;6.63;58.21
71299;BME280;59083;47.974;21.722;2023-02-28T13:30:01;101537.53;;;6.82;58.39
71299;BME280;59083;47.974;21.722;2023-02-28T13:36:30;101544.50;;;6.83;58.71
71299;BME280;59083;47.974;21.722;2023-02-28T13:46:11;101536.28;;;6.56;59.02
71299;BME280;59083;47.974;21.722;2023-02-28T13:52:25;101541.78;;;6.64;59.57
71299;BME280;59083;47.974;21.722;2023-02-28T13:58:43;101544.75;;;6.50;59.73
71299;BME280;59083;47.974;21.722;2023-02-28T14:02:03;101543.03;;;6.60;59.82
71299;BME280;59083;47.974;21.722;2023-02-28T14:05:18;101541.16;;;6.51;59.87
71299;BME280;59083;47.974;21.722;2023-02-28T14:08:22;101531.28;;;6.53;59.86
71299;BME280;59083;47.974;21.722;2023-02-28T14:11:27;101540.75;;;6.55;60.35
71299;BME280;59083;47.974;21.722;2023-02-28T14:17:36;101539.72;;;6.37;60.53
71299;BME280;59083;47.974;21.722;2023-02-28T14:20:40;101536.56;;;6.53;60.16
71299;BME280;59083;47.974;21.722;2023-02-28T14:37:33;101526.75;;;6.44;60.38
71299;BME280;59083;47.974;21.722;2023-02-28T14:40:38;101528.19;;;6.48;60.65
71299;BME280;59083;47.974;21.722;2023-02-28T14:43:48;101527.66;;;6.54;60.70
71299;BME280;59083;47.974;21.722;2023-02-28T14:49:54;101524.50;;;6.39;61.35
71299;BME280;59083;47.974;21.722;2023-02-28T14:52:57;101521.47;;;6.44;60.90
71299;BME280;59083;47.974;21.722;2023-02-28T14:55:59;101528.19;;;6.48;60.84
71299;BME280;59083;47.974;21.722;2023-02-28T14:59:01;101520.94;;;6.50;60.96
71299;BME280;59083;47.974;21.722;2023-02-28T15:02:24;101522.25;;;6.35;61.53
71299;BME280;59083;47.974;21.722;2023-02-28T15:05:32;101515.06;;;6.46;61.38
71299;BME280;59083;47.974;21.722;2023-02-28T15:08:34;101533.38;;;6.59;61.44
71299;BME280;59083;47.974;21.722;2023-02-28T15:11:38;101527.03;;;6.41;61.59
71299;BME280;59083;47.974;21.722;2023-02-28T15:14:43;101527.22;;;6.49;61.49
71299;BME280;59083;47.974;21.722;2023-02-28T15:17:48;101524.19;;;6.33;62.21
71299;BME280;59083;47.974;21.722;2023-02-28T15:20:51;101524.72;;;6.27;61.79
71299;BME280;59083;47.974;21.722;2023-02-28T15:23:59;101523.59;;;6.19;62.47
71299;BME280;59083;47.974;21.722;2023-02-28T15:27:15;101526.56;;;6.26;62.24
71299;BME280;59083;47.974;21.722;2023-02-28T15:30:25;101521.63;;;6.21;62.36
71299;BME280;59083;47.974;21.722;2023-02-28T15:33:30;101509.62;;;6.17;62.55
71299;BME280;59083;47.974;21.722;2023-02-28T15:36:33;101519.06;;;6.31;62.57
71299;BME280;59083;47.974;21.722;2023-02-28T15:39:42;101514.09;;;6.17;62.63
71299;BME280;59083;47.974;21.722;2023-02-28T15:43:18;101510.44;;;6.08;63.12
71299;BME280;59083;47.974;21.722;2023-02-28T15:46:19;101511.66;;;6.04;63.39
71299;BME280;59083;47.974;21.722;2023-02-28T15:49:22;101513.16;;;5.97;63.49
71299;BME280;59083;47.974;21.722;2023-02-28T15:55:37;101498.94;;;5.98;63.54
71299;BME280;59083;47.974;21.722;2023-02-28T15:58:41;101504.78;;;5.92;63.97
71299;BME280;59083;47.974;21.722;2023-02-28T16:01:42;101503.09;;;5.91;64.13
71299;BME280;59083;47.974;21.722;2023-02-28T16:04:58;101515.59;;;5.89;64.34
71299;BME280;59083;47.974;21.722;2023-02-28T16:08:06;101514.41;;;5.82;64.51
71299;BME280;59083;47.974;21.722;2023-02-28T16:11:12;101517.19;;;5.80;64.71
71299;BME280;59083;47.974;21.722;2023-02-28T16:14:19;101517.69;;;5.74;64.79
71299;BME280;59083;47.974;21.722;2023-02-28T16:17:26;101514.53;;;5.80;64.85
71299;BME280;59083;47.974;21.722;2023-02-28T16:20:30;101509.78;;;5.74;64.75
71299;BME280;59083;47.974;21.722;2023-02-28T16:23:31;101517.63;;;5.65;65.17
71299;BME280;59083;47.974;21.722;2023-02-28T16:26:32;101505.88;;;5.58;65.45
71299;BME280;59083;47.974;21.722;2023-02-28T16:29:36;101510.69;;;5.53;65.68
71299;BME280;59083;47.974;21.722;2023-02-28T16:32:37;101511.47;;;5.44;66.64
71299;BME280;59083;47.974;21.722;2023-02-28T16:35:39;101510.50;;;5.45;66.38
71299;BME280;59083;47.974;21.722;2023-02-28T16:38:40;101519.66;;;5.40;66.75
71299;BME280;59083;47.974;21.722;2023-02-28T16:41:43;101526.38;;;5.45;66.49
71299;BME280;59083;47.974;21.722;2023-02-28T16:44:45;101523.00;;;5.43;66.92
71299;BME280;59083;47.974;21.722;2023-02-28T16:47:47;101529.13;;;5.43;66.85
71299;BME280;59083;47.974;21.722;2023-02-28T16:50:48;101532.22;;;5.48;66.67
71299;BME280;59083;47.974;21.722;2023-02-28T16:53:50;101533.06;;;5.49;66.57
71299;BME280;59083;47.974;21.722;2023-02-28T16:56:51;101531.28;;;5.49;66.93
71299;BME280;59083;47.974;21.722;2023-02-28T16:59:52;101529.97;;;5.44;67.24
71299;BME280;59083;47.974;21.722;2023-02-28T17:02:54;101524.56;;;5.45;67.43
71299;BME280;59083;47.974;21.722;2023-02-28T17:05:56;101538.28;;;5.39;67.16
71299;BME280;59083;47.974;21.722;2023-02-28T17:08:58;101543.06;;;5.45;66.89
71299;BME280;59083;47.974;21.722;2023-02-28T17:12:00;101544.16;;;5.43;67.18
71299;BME280;59083;47.974;21.722;2023-02-28T17:15:01;101548.00;;;5.38;67.65
71299;BME280;59083;47.974;21.722;2023-02-28T17:18:03;101542.97;;;5.35;67.46
71299;BME280;59083;47.974;21.722;2023-02-28T17:21:09;101538.19;;;5.29;67.98
71299;BME280;59083;47.974;21.722;2023-02-28T17:24:10;101536.03;;;5.34;67.76
71299;BME280;59083;47.974;21.722;2023-02-28T17:27:12;101541.03;;;5.37;67.85
71299;BME280;59083;47.974;21.722;2023-02-28T17:30:22;101548.87;;;5.28;68.08
71299;BME280;59083;47.974;21.722;2023-02-28T17:33:23;101539.16;;;5.28;68.42
71299;BME280;59083;47.974;21.722;2023-02-28T17:36:26;101530.97;;;5.31;68.33
71299;BME280;59083;47.974;21.722;2023-02-28T17:39:27;101533.62;;;5.31;68.21
71299;BME280;59083;47.974;21.722;2023-02-28T17:42:28;101523.34;;;5.17;68.90
71299;BME280;59083;47.974;21.722;2023-02-28T17:45:29;101538.44;;;5.26;68.33
71299;BME280;59083;47.974;21.722;2023-02-28T17:48:32;101532.19;;;5.27;68.12
71299;BME280;59083;47.974;21.722;2023-02-28T17:51:33;101534.56;;;5.30;68.04
71299;BME280;59083;47.974;21.722;2023-02-28T17:54:34;101535.41;;;5.31;67.80
71299;BME280;59083;47.974;21.722;2023-02-28T17:57:35;101543.50;;;5.29;67.99
71299;BME280;59083;47.974;21.722;2023-02-28T18:00:37;101546.94;;;5.30;67.94
71299;BME280;59083;47.974;21.722;2023-02-28T18:03:39;101547.81;;;5.19;68.11
71299;BME280;59083;47.974;21.722;2023-02-28T18:06:43;101543.03;;;5.13;68.63
71299;BME280;59083;47.974;21.722;2023-02-28T18:09:47;101540.16;;;5.16;68.39
71299;BME280;59083;47.974;21.722;2023-02-28T18:12:51;101544.97;;;5.11;68.41